Latest Weather Observations for Bairnsdale

IDV60801

Issued at 9:32 am EST Tuesday 30 August 2016 (issued every 30 minutes, with the page automatically refreshed every 10 minutes)

About weather observations | Map of weather stations | Latest weather observations for VIC | Other Formats
Station Details ID: 085279 Name: BAIRNSDALE AIRPORT Lat: -37.88 Lon: 147.57 Height: 49.4 m
Data from the previous 72 hours. | See also: Recent months at Bairnsdale
Date/Time
EST
Temp
°C
App
Temp
°C
Dew
Point
°C
Rel
Hum
%
Delta-T
°C
Wind Press
QNH
hPa
Press
MSL
hPa
Rain since
9am
mm
Dir  Spd
km/h
Gust
km/h
Spd
kts
Gust
kts
30/09:30am 9.2 7.0 6.3 82 1.3 NNE 7 9 4 5 1021.7 1021.8 0.0
30/09:00am 8.7 6.6 6.0 83 1.2 ENE 6 9 3 5 1021.5 1021.6 0.0
30/08:30am 8.0 5.9 5.6 85 1.1 E 6 9 3 5 1021.9 1022.0 0.0
30/08:00am 7.7 5.6 5.8 88 0.9 NNW 6 7 3 4 1022.5 1022.6 0.0
30/07:30am 6.5 4.1 5.1 91 0.6 WNW 7 9 4 5 1022.5 1022.6 0.0
30/07:00am 6.2 3.9 4.7 90 0.6 NW 6 9 3 5 1022.5 1022.6 0.0
30/06:30am 6.7 3.9 5.2 90 0.7 NNE 9 13 5 7 1021.9 1022.0 0.0
30/06:00am 5.9 3.9 4.4 90 0.6 ENE 4 7 2 4 1021.5 1021.6 0.0
30/05:30am 4.4 3.0 3.5 94 0.4 CALM 0 0 0 0 1022.0 1022.1 0.0
30/05:00am 4.4 2.1 2.8 89 0.6 NNW 4 6 2 3 1021.5 1021.6 0.0
30/04:30am 5.0 2.3 3.7 91 0.5 N 7 13 4 7 1021.3 1021.4 0.0
30/04:00am 4.7 1.6 3.5 92 0.5 NNE 9 11 5 6 1021.4 1021.5 0.0
30/03:30am 5.0 3.6 3.8 92 0.5 CALM 0 0 0 0 1021.7 1021.8 0.0
30/03:00am 5.2 3.5 4.0 92 0.5 E 2 7 1 4 1021.6 1021.7 0.0
30/02:30am 3.8 1.1 2.6 92 0.5 WNW 6 9 3 5 1022.2 1022.3 0.0
30/02:00am 4.8 2.7 3.8 93 0.4 WNW 4 9 2 5 1022.1 1022.2 0.0
30/01:30am 4.5 1.9 3.2 91 0.5 NNW 6 7 3 4 1022.4 1022.5 0.0
30/01:00am 5.4 2.9 3.7 89 0.7 NW 6 7 3 4 1022.5 1022.6 0.0
30/12:30am 5.9 3.3 4.4 90 0.6 NW 7 9 4 5 1022.8 1022.9 0.0
30/12:00am 5.7 2.7 4.0 89 0.7 NW 9 11 5 6 1023.1 1023.2 0.0
 
Date/Time
EST
Temp
°C
App
Temp
°C
Dew
Point
°C
Rel
Hum
%
Delta-T
°C
Wind Press
QNH
hPa
Press
MSL
hPa
Rain since
9am
mm
Dir  Spd
km/h
Gust
km/h
Spd
kts
Gust
kts
29/11:30pm 5.4 2.8 3.4 87 0.8 NNW 6 7 3 4 1023.4 1023.5 0.0
29/11:00pm 7.0 4.7 4.8 86 1.0 ENE 6 7 3 4 1023.4 1023.5 0.0
29/10:30pm 5.8 3.3 3.5 85 1.0 E 6 7 3 4 1023.6 1023.7 0.0
29/10:00pm 6.1 4.3 3.6 84 1.0 SE 2 6 1 3 1024.0 1024.1 0.0
29/09:30pm 6.7 4.2 3.9 82 1.2 ESE 6 7 3 4 1023.9 1024.0 0.0
29/09:00pm 9.5 6.6 4.9 73 2.1 E 9 9 5 5 1024.3 1024.4 0.0
29/08:30pm 10.1 7.3 5.3 72 2.2 ENE 9 11 5 6 1024.2 1024.3 0.0
29/08:00pm 10.3 6.8 5.5 72 2.2 ENE 13 17 7 9 1023.8 1023.9 0.0
29/07:30pm 9.6 6.4 5.2 74 2.0 ENE 11 13 6 7 1023.6 1023.7 0.0
29/07:00pm 10.1 6.7 5.9 75 1.9 E 13 13 7 7 1023.5 1023.6 0.0
29/06:30pm 10.9 7.6 6.3 73 2.2 ESE 13 17 7 9 1023.2 1023.3 0.0
29/06:00pm 11.7 9.1 6.2 69 2.6 E 9 11 5 6 1023.4 1023.5 0.0
29/05:30pm 13.3 10.8 6.4 63 3.3 ESE 9 11 5 6 1023.1 1023.2 0.0
29/05:00pm 15.2 12.3 6.7 57 4.1 ESE 11 15 6 8 1023.0 1023.1 0.0
29/04:30pm 15.9 12.3 6.6 54 4.6 ESE 15 19 8 10 1022.5 1022.6 0.0
29/04:00pm 16.8 13.1 6.3 50 5.1 ESE 15 20 8 11 1022.6 1022.7 0.0
29/03:30pm 16.6 11.7 4.3 44 5.8 ESE 19 24 10 13 1022.7 1022.8 0.0
29/03:00pm 17.2 13.4 5.8 47 5.5 SE 15 19 8 10 1022.8 1022.9 0.0
29/02:30pm 18.1 14.5 5.0 42 6.3 SE 13 19 7 10 1022.8 1022.9 0.0
29/02:00pm 18.2 14.3 3.3 37 6.9 ESE 13 19 7 10 1023.0 1023.1 0.0
29/01:30pm 18.8 15.7 3.8 37 7.1 ESE 9 15 5 8 1023.0 1023.1 0.0
29/01:00pm 19.0 15.9 3.6 36 7.2 ESE 9 13 5 7 1023.4 1023.5 0.0
29/12:30pm 18.6 16.3 5.8 43 6.3 ENE 7 11 4 6 1023.7 1023.8 0.0
29/12:00pm 18.0 15.7 5.9 45 5.9 E 7 11 4 6 1024.2 1024.3 0.0
29/11:30am 18.0 16.5 6.8 48 5.6 NNE 4 9 2 5 1024.8 1024.9 0.0
29/11:00am 16.5 14.5 6.3 51 5.0 NE 6 7 3 4 1025.3 1025.4 0.0
29/10:30am 16.0 14.7 6.2 52 4.8 NNE 2 7 1 4 1025.5 1025.6 0.0
29/10:00am 14.5 12.4 5.8 56 4.1 ENE 6 7 3 4 1025.6 1025.7 0.0
29/09:30am 13.3 11.2 3.9 53 4.3 NNE 4 6 2 3 1025.7 1025.8 0.0
29/09:00am 11.7 9.6 4.0 59 3.4 ESE 4 7 2 4 1025.7 1025.8 0.0
29/08:30am 10.2 8.5 6.0 75 1.9 NE 4 6 2 3 1025.6 1025.7 0.0
29/08:00am 7.8 7.2 7.2 96 0.3 CALM 0 0 0 0 1025.2 1025.3 0.0
29/07:30am 5.1 3.2 4.8 98 0.1 E 4 7 2 4 1025.0 1025.1 0.0
29/07:00am 3.9 1.2 3.6 98 0.1 ENE 7 9 4 5 1024.5 1024.6 0.0
29/06:59am 4.0 1.3 3.7 98 0.1 ENE 7 9 4 5 1024.5 1024.6 0.0
29/06:30am 2.4 0.4 2.1 98 0.1 NNE 2 7 1 4 1024.1 1024.2 0.0
29/06:00am 2.3 0.6 1.9 97 0.2 CALM 0 0 0 0 1023.8 1023.9 0.0
29/05:55am 2.6 1.0 2.3 98 0.1 CALM 0 0 0 0 1023.8 1023.9 0.0
29/05:30am 3.0 0.1 2.7 98 0.1 N 7 9 4 5 1023.7 1023.8 0.0
29/05:15am 3.3 0.5 3.0 98 0.1 N 7 9 4 5 1023.6 1023.7 0.0
29/05:00am 3.0 0.3 2.7 98 0.1 N 6 7 3 4 1023.5 1023.6 0.0
29/04:55am 2.8 0.1 2.5 98 0.1 N 6 9 3 5 1023.4 1023.5 0.0
29/04:49am 3.7 0.9 3.4 98 0.1 N 7 9 4 5 1023.3 1023.4 0.0
29/04:30am 3.2 0.5 2.9 98 0.1 NW 6 7 3 4 1023.3 1023.4 0.0
29/04:00am 3.8 1.3 3.5 98 0.1 NW 6 7 3 4 1023.0 1023.1 0.0
29/03:44am 2.5 -0.5 2.1 97 0.2 NW 7 9 4 5 1023.0 1023.1 0.0
29/03:30am 2.5 -0.5 2.1 97 0.2 NW 7 9 4 5 1022.8 1022.9 0.0
29/03:29am 2.4 -0.6 2.0 97 0.2 NW 7 9 4 5 1022.8 1022.9 0.0
29/03:14am 2.8 -0.5 2.4 97 0.2 NW 9 9 5 5 1022.8 1022.9 0.0
29/03:00am 2.8 -0.1 2.4 97 0.2 NW 7 9 4 5 1022.9 1023.0 0.0
29/02:30am 3.6 2.1 3.2 97 0.2 CALM 0 0 0 0 1023.1 1023.2 0.0
29/02:26am 4.2 2.8 3.8 97 0.2 CALM 0 0 0 0 1023.1 1023.2 0.0
29/02:00am 4.8 3.6 4.5 98 0.1 CALM 0 0 0 0 1023.2 1023.3 0.0
29/01:30am 5.2 4.1 4.9 98 0.1 CALM 0 0 0 0 1023.2 1023.3 0.0
29/01:00am 5.3 3.8 5.0 98 0.1 NE 2 7 1 4 1023.1 1023.2 0.0
29/12:30am 3.9 2.5 3.5 97 0.2 CALM 0 0 0 0 1023.0 1023.1 0.0
29/12:13am 4.8 3.6 4.4 97 0.2 CALM 0 0 0 0 1022.9 1023.0 0.0
29/12:00am 3.7 2.3 3.3 97 0.2 CALM 0 0 0 0 1022.8 1022.9 0.0
 
Date/Time
EST
Temp
°C
App
Temp
°C
Dew
Point
°C
Rel
Hum
%
Delta-T
°C
Wind Press
QNH
hPa
Press
MSL
hPa
Rain since
9am
mm
Dir  Spd
km/h
Gust
km/h
Spd
kts
Gust
kts
28/11:30pm 4.6 3.3 4.2 97 0.2 CALM 0 0 0 0 1022.6 1022.7 0.0
28/11:19pm 4.8 3.6 4.4 97 0.2 CALM 0 0 0 0 1022.6 1022.7 0.0
28/11:00pm 5.2 4.0 4.8 97 0.2 CALM 0 0 0 0 1022.6 1022.7 0.0
28/10:30pm 6.0 4.6 5.6 97 0.2 SE 2 6 1 3 1022.6 1022.7 0.0
28/10:00pm 6.6 4.6 6.2 97 0.2 SE 6 7 3 4 1022.4 1022.5 0.0
28/09:30pm 6.7 4.7 6.3 97 0.2 ESE 6 7 3 4 1022.1 1022.2 0.0
28/09:00pm 6.1 3.7 5.4 95 0.3 ESE 7 7 4 4 1022.0 1022.1 0.0
28/08:32pm 5.9 3.6 4.9 93 0.4 SE 6 7 3 4 1021.8 1021.9 0.0
28/08:30pm 6.2 4.0 5.2 93 0.4 SE 6 9 3 5 1021.8 1021.9 0.0
28/08:00pm 8.5 6.7 7.3 92 0.6 NE 6 7 3 4 1021.6 1021.7 0.0
28/07:30pm 8.8 6.6 7.7 93 0.5 NE 9 11 5 6 1021.3 1021.4 0.0
28/07:00pm 8.8 6.9 7.4 91 0.7 NE 7 9 4 5 1021.1 1021.2 0.0
28/06:30pm 9.2 7.2 7.3 88 0.9 NE 7 9 4 5 1020.8 1020.9 0.0
28/06:00pm 10.3 8.0 7.5 83 1.3 SE 9 11 5 6 1020.5 1020.6 0.0
28/05:30pm 10.9 8.6 7.6 80 1.6 SE 9 13 5 7 1020.1 1020.2 0.0
28/05:00pm 12.5 10.0 8.4 76 2.0 ESE 11 17 6 9 1019.8 1019.9 0.0
28/04:30pm 12.5 9.2 8.2 75 2.1 SE 15 19 8 10 1019.5 1019.6 0.0
28/04:00pm 13.9 11.2 7.4 65 3.2 SE 11 17 6 9 1019.2 1019.3 0.0
28/03:30pm 14.3 10.1 7.6 64 3.3 SSE 19 22 10 12 1018.9 1019.0 0.0
28/03:00pm 14.0 10.2 7.5 65 3.2 SE 17 22 9 12 1018.9 1019.0 0.0
28/02:30pm 17.0 12.3 5.3 46 5.6 SSW 19 24 10 13 1018.8 1018.9 0.0
28/02:00pm 17.7 13.0 5.3 44 6.0 W 19 30 10 16 1018.8 1018.9 0.0
28/01:30pm 17.1 10.9 4.1 42 6.1 WSW 26 33 14 18 1018.9 1019.0 0.0
28/01:00pm 16.9 11.8 3.9 42 6.1 W 20 32 11 17 1019.1 1019.2 0.0
28/12:30pm 16.5 10.9 3.2 41 6.1 W 22 35 12 19 1019.2 1019.3 0.0
28/12:00pm 16.2 11.1 3.9 44 5.7 NW 20 30 11 16 1019.5 1019.6 0.0
28/11:30am 16.1 10.1 3.2 42 5.9 NW 24 35 13 19 1019.6 1019.7 0.0
28/11:00am 16.4 10.5 3.8 43 5.8 NW 24 35 13 19 1019.6 1019.7 0.0
28/10:30am 15.9 10.0 4.0 45 5.5 NW 24 32 13 17 1019.7 1019.8 0.0
28/10:00am 13.7 8.8 4.0 52 4.4 NW 19 26 10 14 1019.9 1020.0 0.0
28/09:30am 13.3 8.7 3.9 53 4.3 NW 17 24 9 13 1019.7 1019.8 0.0
28/09:00am 12.6 8.1 4.1 56 3.8 NW 17 22 9 12 1019.7 1019.8 0.0
28/08:30am 12.0 7.4 3.8 57 3.7 NW 17 22 9 12 1019.6 1019.7 0.0
28/08:00am 11.4 6.7 3.4 58 3.5 NW 17 22 9 12 1019.3 1019.4 0.0
28/07:30am 11.0 7.1 3.3 59 3.4 NW 13 17 7 9 1019.3 1019.4 0.0
28/07:00am 10.5 6.9 3.1 60 3.2 NW 11 15 6 8 1018.8 1018.9 0.0
28/06:30am 10.1 6.9 2.9 61 3.1 NNW 9 13 5 7 1018.5 1018.6 0.0
28/06:00am 10.3 5.9 2.7 59 3.3 NNW 15 17 8 9 1018.1 1018.2 0.0
28/05:30am 9.6 6.0 2.7 62 2.9 NNW 11 15 6 8 1018.0 1018.1 0.0
28/05:00am 9.2 5.6 3.0 65 2.7 NW 11 13 6 7 1017.9 1018.0 0.0
28/04:30am 9.9 6.3 2.7 61 3.1 NNW 11 15 6 8 1017.7 1017.8 0.0
28/04:00am 10.4 6.3 2.5 58 3.4 NNW 13 19 7 10 1017.7 1017.8 0.0
28/03:30am 10.3 5.8 2.4 58 3.4 NNW 15 19 8 10 1017.6 1017.7 0.0
28/03:00am 9.1 5.8 2.2 62 2.9 NNW 9 11 5 6 1017.9 1018.0 0.0
28/02:30am 9.5 5.7 1.7 58 3.3 NNW 11 15 6 8 1018.1 1018.2 0.0
28/02:00am 9.3 5.5 1.9 60 3.1 NNW 11 13 6 7 1018.4 1018.5 0.0
28/01:30am 9.3 5.2 2.2 61 3.0 NW 13 17 7 9 1018.6 1018.7 0.0
28/01:00am 8.6 4.9 2.4 65 2.6 NW 11 13 6 7 1018.9 1019.0 0.0
28/12:30am 9.8 6.4 1.7 57 3.4 NNW 9 13 5 7 1018.8 1018.9 0.0
28/12:00am 10.2 6.0 1.6 55 3.6 NNW 13 19 7 10 1018.7 1018.8 0.0
 
Date/Time
EST
Temp
°C
App
Temp
°C
Dew
Point
°C
Rel
Hum
%
Delta-T
°C
Wind Press
QNH
hPa
Press
MSL
hPa
Rain since
9am
mm
Dir  Spd
km/h
Gust
km/h
Spd
kts
Gust
kts
27/11:30pm 9.8 5.6 1.5 56 3.5 NNW 13 17 7 9 1019.0 1019.1 0.0
27/11:00pm 9.2 5.3 1.4 58 3.2 NNW 11 15 6 8 1019.3 1019.4 0.0
27/10:30pm 8.8 4.2 1.7 61 2.9 NW 15 20 8 11 1019.5 1019.6 0.0
27/10:00pm 8.3 5.1 0.5 58 3.1 NNW 7 9 4 5 1019.4 1019.5 0.0
27/09:30pm 7.9 4.3 0.6 60 2.9 NNW 9 13 5 7 1019.2 1019.3 0.0
27/09:00pm 8.6 4.6 0.8 58 3.1 NNW 11 17 6 9 1019.2 1019.3 0.0
27/08:30pm 9.0 4.0 1.4 59 3.1 NNW 17 22 9 12 1018.9 1019.0 0.0
27/08:00pm 8.3 4.8 1.5 62 2.8 NW 9 13 5 7 1019.0 1019.1 0.0
27/07:30pm 9.3 5.5 1.9 60 3.1 NW 11 15 6 8 1018.8 1018.9 0.0
27/07:00pm 10.3 6.2 2.4 58 3.4 WNW 13 17 7 9 1019.0 1019.1 0.0
27/06:30pm 11.3 8.1 2.9 56 3.7 NNW 9 17 5 9 1018.2 1018.3 0.0
27/06:00pm 10.7 7.1 2.8 58 3.4 WNW 11 13 6 7 1018.4 1018.5 0.0
27/05:30pm 11.9 7.9 2.6 53 4.0 W 13 17 7 9 1018.0 1018.1 0.0
27/05:00pm 13.5 9.9 2.7 48 4.8 W 11 17 6 9 1017.8 1017.9 0.0
27/04:30pm 14.5 10.9 2.7 45 5.3 WSW 11 17 6 9 1018.0 1018.1 0.0
27/04:00pm 16.1 12.8 2.2 39 6.2 WNW 9 13 5 7 1017.8 1017.9 0.0
27/03:30pm 16.0 12.6 1.7 38 6.3 NNW 9 11 5 6 1017.8 1017.9 0.0
27/03:00pm 16.1 12.2 1.4 37 6.5 NW 11 17 6 9 1018.0 1018.1 0.0
27/02:30pm 15.2 11.5 2.1 41 5.8 NNW 11 15 6 8 1017.9 1018.0 0.0
27/02:00pm 16.1 12.4 2.2 39 6.2 W 11 17 6 9 1018.4 1018.5 0.0
27/01:30pm 16.2 13.4 3.3 42 5.9 WNW 7 17 4 9 1018.8 1018.9 0.0
27/01:00pm 15.1 11.6 1.3 39 6.0 WNW 9 15 5 8 1019.0 1019.1 0.0
27/12:30pm 15.6 11.2 2.7 42 5.8 NW 15 20 8 11 1019.4 1019.5 0.0
27/12:00pm 14.5 9.5 1.4 41 5.7 WNW 17 28 9 15 1019.9 1020.0 0.0
27/11:30am 14.1 9.1 1.1 41 5.6 NW 17 22 9 12 1020.4 1020.5 0.0
27/11:00am 13.6 8.2 1.3 43 5.3 NNW 19 26 10 14 1020.8 1020.9 0.0
27/10:30am 12.7 7.1 1.4 46 4.8 NW 20 26 11 14 1021.2 1021.3 0.0
27/10:00am 12.3 7.4 2.2 50 4.4 NW 17 22 9 12 1021.7 1021.8 0.0

Other Formats:

Comma delimited format used in spreadsheet applications
http://www.bom.gov.au/fwo/IDV60801/IDV60801.94912.axf

JavaScript Object Notation format (JSON) in row-major order
http://www.bom.gov.au/fwo/IDV60801/IDV60801.94912.json